Shawnee, OK

3:43 AM CDT on August 30, 2014 (GMT -0500)
Rose Garden | Change Station
CLOSE
Current Station
Personal Weather Station
Location: Shawnee, OK
Elevation: 1119 ft
Nearby Weather Stations

Elev 1119 ft 35.36 °N, 96.93 °W | Updated 31 seconds ago

Scattered Clouds
Scattered Clouds
72.3 °F
Feels Like 71 °F
N
2.2
Wind Variable Wind from East

Today
High -- | Low -- °F
--% Chance of Precip.
Yesterday
High -- | Low -- °F
Precip. -- in
6:58 AM 7:57 PM
Waxing Crescent, 20% visible
Pressure 29.96 in
Visibility 10.0 miles
Clouds Scattered Clouds 7500 ft
Heat Index 71 °F
Dew Point 67 °F
Humidity 84%
Rainfall 0.00 in
Snow Depth Not available.
UV 0 out of 12
Pollen 7.60 out of 12
Air Quality Not available.
Flu Activity Not available.
METAR KSNL 300835Z AUTO 20003KT 10SM SCT075 22/21 A2996 RMK AO2

More Conditions Fewer Conditions

Pressure 29.96 in
Visibility 10.0 miles
Clouds Scattered Clouds 7500 ft
Heat Index 71 °F
Dew Point 67 °F
Humidity 84%
Rainfall 0.00 in
Snow Depth Not available.
UV 0 out of 12
Pollen 7.60 out of 12
Air Quality Not available.
Flu Activity Not available.
METAR KSNL 300835Z AUTO 20003KT 10SM SCT075 22/21 A2996 RMK AO2

More Conditions Fewer Conditions

10-Day Weather Forecast

Almanac

Astronomy

Aug. 30, 2014 Rise Set
Actual Time 6:58 AM CDT 7:57 PM CDT
Civil Twilight 6:32 AM CDT 8:23 PM CDT
Nautical Twilight 6:01 AM CDT 8:54 PM CDT
Astronomical Twilight 5:29 AM CDT 9:25 PM CDT
Moon 11:35 AM CDT 10:44 PM CDT
Length of Visible Light 13h 50m
Length of Day
12h 58m
Tomorrow will be 2m 8s shorter.
Waxing Crescent, 20% of the Moon is Illuminated
Today
Waxing Crescent
Sep 2
First Quarter
Sep 8
Full
Sep 15
Last Quarter
Sep 24
New

Today's Extremes

State Highs State Lows

Community

WunderPhotos

Upload Photos

1,748,474 photos uploaded!

Nearby

Snow Depth

Station Depth Elevation
No new snow has been reported.

Earthquake Activity

City Distance Mag. Time & Date
Guthrie, Oklahoma 46 miles 3.2 10:39 AM CDT
2014-08-29
Perry, Oklahoma 72 miles 3.0 4:52 AM CDT
2014-08-29
Perry, Oklahoma 70 miles 3.1 10:01 PM CDT
2014-08-28
Minimum magnitude displayed is 2.5.

Coastal Water Temperatures

Place Temperature
No Stations Reporting

Nearby Weather Stations